sensor_id;sensor_type;location;lat;lon;timestamp;P1;durP1;ratioP1;P2;durP2;ratioP2
23388;SDS011;11867;51.198;11.966;2023-04-12T00:01:00;4.38;;;3.20;;
23388;SDS011;11867;51.198;11.966;2023-04-12T00:02:03;5.30;;;3.75;;
23388;SDS011;11867;51.198;11.966;2023-04-12T00:03:07;4.35;;;3.47;;
23388;SDS011;11867;51.198;11.966;2023-04-12T00:04:10;4.82;;;4.13;;
23388;SDS011;11867;51.198;11.966;2023-04-12T00:05:15;5.63;;;3.88;;
23388;SDS011;11867;51.198;11.966;2023-04-12T00:06:19;7.07;;;3.53;;
23388;SDS011;11867;51.198;11.966;2023-04-12T00:07:25;4.45;;;3.22;;
23388;SDS011;11867;51.198;11.966;2023-04-12T00:08:28;8.07;;;3.60;;
23388;SDS011;11867;51.198;11.966;2023-04-12T00:09:33;6.75;;;3.63;;
23388;SDS011;11867;51.198;11.966;2023-04-12T00:10:36;5.03;;;3.38;;
23388;SDS011;11867;51.198;11.966;2023-04-12T00:11:38;8.77;;;3.70;;
23388;SDS011;11867;51.198;11.966;2023-04-12T00:12:40;4.80;;;3.65;;
23388;SDS011;11867;51.198;11.966;2023-04-12T00:13:42;5.15;;;3.85;;
23388;SDS011;11867;51.198;11.966;2023-04-12T00:14:44;6.50;;;3.60;;
23388;SDS011;11867;51.198;11.966;2023-04-12T00:15:47;5.60;;;3.22;;
23388;SDS011;11867;51.198;11.966;2023-04-12T00:16:50;5.13;;;3.58;;
23388;SDS011;11867;51.198;11.966;2023-04-12T00:17:52;5.40;;;3.70;;
23388;SDS011;11867;51.198;11.966;2023-04-12T00:18:54;4.18;;;3.70;;
23388;SDS011;11867;51.198;11.966;2023-04-12T00:19:57;5.88;;;3.20;;
23388;SDS011;11867;51.198;11.966;2023-04-12T00:21:00;6.20;;;3.47;;
23388;SDS011;11867;51.198;11.966;2023-04-12T00:22:02;5.03;;;3.42;;
23388;SDS011;11867;51.198;11.966;2023-04-12T00:23:05;5.43;;;3.45;;
23388;SDS011;11867;51.198;11.966;2023-04-12T00:24:07;6.30;;;3.78;;
23388;SDS011;11867;51.198;11.966;2023-04-12T00:25:10;5.40;;;3.22;;
23388;SDS011;11867;51.198;11.966;2023-04-12T00:26:12;4.78;;;3.35;;
23388;SDS011;11867;51.198;11.966;2023-04-12T00:27:15;6.25;;;3.80;;
23388;SDS011;11867;51.198;11.966;2023-04-12T00:28:16;5.60;;;3.40;;
23388;SDS011;11867;51.198;11.966;2023-04-12T00:29:20;5.43;;;3.40;;
23388;SDS011;11867;51.198;11.966;2023-04-12T00:30:22;6.30;;;3.25;;
23388;SDS011;11867;51.198;11.966;2023-04-12T00:31:24;5.75;;;3.25;;
23388;SDS011;11867;51.198;11.966;2023-04-12T00:32:26;6.40;;;3.25;;
23388;SDS011;11867;51.198;11.966;2023-04-12T00:33:29;6.25;;;3.40;;
23388;SDS011;11867;51.198;11.966;2023-04-12T00:34:30;7.78;;;3.78;;
23388;SDS011;11867;51.198;11.966;2023-04-12T00:35:33;4.32;;;3.88;;
23388;SDS011;11867;51.198;11.966;2023-04-12T00:36:35;5.40;;;3.55;;
23388;SDS011;11867;51.198;11.966;2023-04-12T00:37:39;7.25;;;3.83;;
23388;SDS011;11867;51.198;11.966;2023-04-12T00:38:40;4.88;;;3.88;;
23388;SDS011;11867;51.198;11.966;2023-04-12T00:39:43;5.28;;;3.33;;
23388;SDS011;11867;51.198;11.966;2023-04-12T00:40:45;5.22;;;3.75;;
23388;SDS011;11867;51.198;11.966;2023-04-12T00:41:47;6.75;;;3.65;;
23388;SDS011;11867;51.198;11.966;2023-04-12T00:42:49;6.63;;;3.47;;
23388;SDS011;11867;51.198;11.966;2023-04-12T00:43:51;4.15;;;3.30;;
23388;SDS011;11867;51.198;11.966;2023-04-12T00:44:53;5.95;;;3.70;;
23388;SDS011;11867;51.198;11.966;2023-04-12T00:45:56;10.50;;;3.92;;
23388;SDS011;11867;51.198;11.966;2023-04-12T00:46:58;4.18;;;3.45;;
23388;SDS011;11867;51.198;11.966;2023-04-12T00:48:01;5.25;;;3.85;;
23388;SDS011;11867;51.198;11.966;2023-04-12T00:49:03;6.32;;;3.60;;
23388;SDS011;11867;51.198;11.966;2023-04-12T00:50:07;4.43;;;3.53;;
23388;SDS011;11867;51.198;11.966;2023-04-12T00:51:09;5.85;;;3.17;;
23388;SDS011;11867;51.198;11.966;2023-04-12T00:52:12;4.75;;;3.50;;
23388;SDS011;11867;51.198;11.966;2023-04-12T00:53:17;3.35;;;3.05;;
23388;SDS011;11867;51.198;11.966;2023-04-12T00:54:19;5.35;;;3.20;;
23388;SDS011;11867;51.198;11.966;2023-04-12T00:55:22;5.57;;;3.50;;
23388;SDS011;11867;51.198;11.966;2023-04-12T00:56:24;5.00;;;3.30;;
23388;SDS011;11867;51.198;11.966;2023-04-12T00:57:29;5.70;;;3.20;;
23388;SDS011;11867;51.198;11.966;2023-04-12T00:58:35;5.88;;;3.15;;
23388;SDS011;11867;51.198;11.966;2023-04-12T00:59:36;5.55;;;3.42;;
23388;SDS011;11867;51.198;11.966;2023-04-12T01:00:39;7.07;;;3.42;;
23388;SDS011;11867;51.198;11.966;2023-04-12T01:01:41;6.47;;;3.30;;
23388;SDS011;11867;51.198;11.966;2023-04-12T01:02:45;5.38;;;3.45;;
23388;SDS011;11867;51.198;11.966;2023-04-12T01:03:50;5.30;;;3.45;;
23388;SDS011;11867;51.198;11.966;2023-04-12T01:04:55;7.32;;;3.70;;
23388;SDS011;11867;51.198;11.966;2023-04-12T01:06:02;4.40;;;3.28;;
23388;SDS011;11867;51.198;11.966;2023-04-12T01:07:13;7.20;;;3.85;;
23388;SDS011;11867;51.198;11.966;2023-04-12T01:08:26;4.20;;;3.25;;
23388;SDS011;11867;51.198;11.966;2023-04-12T01:09:38;4.20;;;3.15;;
23388;SDS011;11867;51.198;11.966;2023-04-12T01:10:55;5.55;;;3.28;;
23388;SDS011;11867;51.198;11.966;2023-04-12T01:12:05;6.03;;;3.75;;
23388;SDS011;11867;51.198;11.966;2023-04-12T01:13:14;3.47;;;2.67;;
23388;SDS011;11867;51.198;11.966;2023-04-12T01:14:28;5.22;;;3.20;;
23388;SDS011;11867;51.198;11.966;2023-04-12T01:15:36;4.60;;;3.28;;
23388;SDS011;11867;51.198;11.966;2023-04-12T01:16:43;5.03;;;3.67;;
23388;SDS011;11867;51.198;11.966;2023-04-12T01:17:51;4.60;;;3.30;;
23388;SDS011;11867;51.198;11.966;2023-04-12T01:19:00;3.80;;;3.15;;
23388;SDS011;11867;51.198;11.966;2023-04-12T01:20:07;3.72;;;3.17;;
23388;SDS011;11867;51.198;11.966;2023-04-12T01:21:17;3.28;;;2.38;;
23388;SDS011;11867;51.198;11.966;2023-04-12T01:22:29;4.78;;;3.65;;
23388;SDS011;11867;51.198;11.966;2023-04-12T01:23:46;5.60;;;3.33;;
23388;SDS011;11867;51.198;11.966;2023-04-12T01:25:02;4.60;;;3.22;;
23388;SDS011;11867;51.198;11.966;2023-04-12T01:26:15;5.75;;;3.22;;
23388;SDS011;11867;51.198;11.966;2023-04-12T01:27:37;4.90;;;3.40;;
23388;SDS011;11867;51.198;11.966;2023-04-12T01:28:43;4.32;;;3.15;;
23388;SDS011;11867;51.198;11.966;2023-04-12T01:29:47;4.78;;;3.30;;
23388;SDS011;11867;51.198;11.966;2023-04-12T01:30:51;5.38;;;3.22;;
23388;SDS011;11867;51.198;11.966;2023-04-12T01:31:56;4.65;;;2.90;;
23388;SDS011;11867;51.198;11.966;2023-04-12T01:33:00;5.07;;;3.42;;
23388;SDS011;11867;51.198;11.966;2023-04-12T01:34:07;7.25;;;3.65;;
23388;SDS011;11867;51.198;11.966;2023-04-12T01:35:11;5.70;;;3.03;;
23388;SDS011;11867;51.198;11.966;2023-04-12T01:36:17;8.55;;;3.40;;
23388;SDS011;11867;51.198;11.966;2023-04-12T01:37:22;5.53;;;3.70;;
23388;SDS011;11867;51.198;11.966;2023-04-12T01:38:24;4.32;;;3.38;;
23388;SDS011;11867;51.198;11.966;2023-04-12T01:39:28;7.20;;;3.25;;
23388;SDS011;11867;51.198;11.966;2023-04-12T01:40:32;5.45;;;2.92;;
23388;SDS011;11867;51.198;11.966;2023-04-12T01:41:37;5.82;;;3.03;;
23388;SDS011;11867;51.198;11.966;2023-04-12T01:42:42;6.60;;;3.25;;
23388;SDS011;11867;51.198;11.966;2023-04-12T01:43:44;5.35;;;3.47;;
23388;SDS011;11867;51.198;11.966;2023-04-12T01:44:48;4.43;;;2.95;;
23388;SDS011;11867;51.198;11.966;2023-04-12T01:45:50;4.60;;;3.00;;
23388;SDS011;11867;51.198;11.966;2023-04-12T01:46:53;6.82;;;3.00;;
23388;SDS011;11867;51.198;11.966;2023-04-12T01:47:54;6.00;;;3.30;;
23388;SDS011;11867;51.198;11.966;2023-04-12T01:48:57;4.82;;;2.88;;
23388;SDS011;11867;51.198;11.966;2023-04-12T01:50:05;4.90;;;3.15;;
23388;SDS011;11867;51.198;11.966;2023-04-12T01:51:16;3.67;;;2.78;;
23388;SDS011;11867;51.198;11.966;2023-04-12T01:52:23;9.50;;;4.95;;
23388;SDS011;11867;51.198;11.966;2023-04-12T01:53:33;4.00;;;3.00;;
23388;SDS011;11867;51.198;11.966;2023-04-12T01:54:41;4.05;;;2.88;;
23388;SDS011;11867;51.198;11.966;2023-04-12T01:55:45;5.20;;;3.17;;
23388;SDS011;11867;51.198;11.966;2023-04-12T01:56:53;3.20;;;2.90;;
23388;SDS011;11867;51.198;11.966;2023-04-12T01:58:00;3.63;;;2.65;;
23388;SDS011;11867;51.198;11.966;2023-04-12T01:59:03;4.95;;;2.83;;
23388;SDS011;11867;51.198;11.966;2023-04-12T02:00:08;4.38;;;3.13;;
23388;SDS011;11867;51.198;11.966;2023-04-12T02:01:12;3.03;;;2.72;;
23388;SDS011;11867;51.198;11.966;2023-04-12T02:02:15;3.53;;;2.70;;
23388;SDS011;11867;51.198;11.966;2023-04-12T02:03:18;3.35;;;2.72;;
23388;SDS011;11867;51.198;11.966;2023-04-12T02:04:22;3.55;;;3.05;;
23388;SDS011;11867;51.198;11.966;2023-04-12T02:05:26;5.53;;;3.80;;
23388;SDS011;11867;51.198;11.966;2023-04-12T02:06:28;5.53;;;2.78;;
23388;SDS011;11867;51.198;11.966;2023-04-12T02:07:32;4.93;;;3.38;;
23388;SDS011;11867;51.198;11.966;2023-04-12T02:08:35;3.45;;;2.88;;
23388;SDS011;11867;51.198;11.966;2023-04-12T02:09:38;5.45;;;3.30;;
23388;SDS011;11867;51.198;11.966;2023-04-12T02:10:40;5.18;;;3.13;;
23388;SDS011;11867;51.198;11.966;2023-04-12T02:11:44;4.30;;;2.75;;
23388;SDS011;11867;51.198;11.966;2023-04-12T02:12:47;3.65;;;2.65;;
23388;SDS011;11867;51.198;11.966;2023-04-12T02:13:50;3.00;;;2.80;;
23388;SDS011;11867;51.198;11.966;2023-04-12T02:14:53;5.72;;;3.17;;
23388;SDS011;11867;51.198;11.966;2023-04-12T02:15:54;3.33;;;2.90;;
23388;SDS011;11867;51.198;11.966;2023-04-12T02:16:59;5.85;;;2.90;;
23388;SDS011;11867;51.198;11.966;2023-04-12T02:18:02;5.07;;;2.65;;
23388;SDS011;11867;51.198;11.966;2023-04-12T02:19:05;5.85;;;3.30;;
23388;SDS011;11867;51.198;11.966;2023-04-12T02:20:08;3.13;;;2.70;;
23388;SDS011;11867;51.198;11.966;2023-04-12T02:21:12;3.67;;;2.70;;
23388;SDS011;11867;51.198;11.966;2023-04-12T02:22:13;5.18;;;2.75;;
23388;SDS011;11867;51.198;11.966;2023-04-12T02:23:17;3.78;;;2.58;;
23388;SDS011;11867;51.198;11.966;2023-04-12T02:24:18;4.95;;;3.17;;
23388;SDS011;11867;51.198;11.966;2023-04-12T02:25:21;5.30;;;2.92;;
23388;SDS011;11867;51.198;11.966;2023-04-12T02:26:23;5.35;;;2.85;;
23388;SDS011;11867;51.198;11.966;2023-04-12T02:27:25;4.15;;;2.60;;
23388;SDS011;11867;51.198;11.966;2023-04-12T02:28:27;3.75;;;2.80;;
23388;SDS011;11867;51.198;11.966;2023-04-12T02:29:31;3.90;;;3.25;;
23388;SDS011;11867;51.198;11.966;2023-04-12T02:30:33;6.00;;;2.72;;
23388;SDS011;11867;51.198;11.966;2023-04-12T02:31:36;3.88;;;2.40;;
23388;SDS011;11867;51.198;11.966;2023-04-12T02:32:39;3.28;;;2.70;;
23388;SDS011;11867;51.198;11.966;2023-04-12T02:33:45;5.22;;;2.80;;
23388;SDS011;11867;51.198;11.966;2023-04-12T02:34:47;3.97;;;2.42;;
23388;SDS011;11867;51.198;11.966;2023-04-12T02:35:51;3.35;;;2.83;;
23388;SDS011;11867;51.198;11.966;2023-04-12T02:36:53;4.00;;;2.40;;
23388;SDS011;11867;51.198;11.966;2023-04-12T02:37:55;3.30;;;2.58;;
23388;SDS011;11867;51.198;11.966;2023-04-12T02:38:58;3.20;;;2.40;;
23388;SDS011;11867;51.198;11.966;2023-04-12T02:40:00;6.75;;;2.78;;
23388;SDS011;11867;51.198;11.966;2023-04-12T02:41:02;3.92;;;2.33;;
23388;SDS011;11867;51.198;11.966;2023-04-12T02:42:05;2.70;;;2.33;;
23388;SDS011;11867;51.198;11.966;2023-04-12T02:43:07;4.15;;;2.78;;
23388;SDS011;11867;51.198;11.966;2023-04-12T02:44:10;3.20;;;2.90;;
23388;SDS011;11867;51.198;11.966;2023-04-12T02:45:13;3.35;;;2.80;;
23388;SDS011;11867;51.198;11.966;2023-04-12T02:46:19;4.60;;;2.80;;
23388;SDS011;11867;51.198;11.966;2023-04-12T02:47:25;4.07;;;2.53;;
23388;SDS011;11867;51.198;11.966;2023-04-12T02:48:29;4.20;;;2.80;;
23388;SDS011;11867;51.198;11.966;2023-04-12T02:49:31;3.53;;;2.80;;
23388;SDS011;11867;51.198;11.966;2023-04-12T02:50:34;4.50;;;2.80;;
23388;SDS011;11867;51.198;11.966;2023-04-12T02:51:37;5.05;;;2.83;;
23388;SDS011;11867;51.198;11.966;2023-04-12T02:52:39;3.90;;;2.72;;
23388;SDS011;11867;51.198;11.966;2023-04-12T02:53:41;5.22;;;2.90;;
23388;SDS011;11867;51.198;11.966;2023-04-12T02:54:44;5.20;;;3.00;;
23388;SDS011;11867;51.198;11.966;2023-04-12T02:55:45;4.68;;;2.85;;
23388;SDS011;11867;51.198;11.966;2023-04-12T02:56:48;4.18;;;2.70;;
23388;SDS011;11867;51.198;11.966;2023-04-12T02:57:49;3.80;;;2.60;;
23388;SDS011;11867;51.198;11.966;2023-04-12T02:58:53;2.78;;;2.50;;
23388;SDS011;11867;51.198;11.966;2023-04-12T02:59:55;3.55;;;2.53;;
23388;SDS011;11867;51.198;11.966;2023-04-12T03:00:59;4.25;;;2.67;;
23388;SDS011;11867;51.198;11.966;2023-04-12T03:02:01;5.03;;;2.70;;
23388;SDS011;11867;51.198;11.966;2023-04-12T03:03:03;3.95;;;2.70;;
23388;SDS011;11867;51.198;11.966;2023-04-12T03:04:05;4.75;;;2.55;;
23388;SDS011;11867;51.198;11.966;2023-04-12T03:05:08;3.88;;;2.70;;
23388;SDS011;11867;51.198;11.966;2023-04-12T03:06:10;2.88;;;2.55;;
23388;SDS011;11867;51.198;11.966;2023-04-12T03:07:13;4.95;;;3.10;;
23388;SDS011;11867;51.198;11.966;2023-04-12T03:08:14;3.80;;;2.63;;
23388;SDS011;11867;51.198;11.966;2023-04-12T03:09:17;4.60;;;2.90;;
23388;SDS011;11867;51.198;11.966;2023-04-12T03:10:18;3.03;;;2.72;;
23388;SDS011;11867;51.198;11.966;2023-04-12T03:11:21;4.15;;;2.97;;
23388;SDS011;11867;51.198;11.966;2023-04-12T03:12:22;3.80;;;3.03;;
23388;SDS011;11867;51.198;11.966;2023-04-12T03:13:25;3.42;;;2.78;;
23388;SDS011;11867;51.198;11.966;2023-04-12T03:14:26;3.22;;;2.53;;
23388;SDS011;11867;51.198;11.966;2023-04-12T03:15:29;4.88;;;3.00;;
23388;SDS011;11867;51.198;11.966;2023-04-12T03:16:32;6.93;;;3.25;;
23388;SDS011;11867;51.198;11.966;2023-04-12T03:17:35;5.15;;;3.00;;
23388;SDS011;11867;51.198;11.966;2023-04-12T03:18:37;4.40;;;2.95;;
23388;SDS011;11867;51.198;11.966;2023-04-12T03:19:39;4.13;;;3.15;;
23388;SDS011;11867;51.198;11.966;2023-04-12T03:20:41;7.63;;;2.90;;
23388;SDS011;11867;51.198;11.966;2023-04-12T03:21:47;4.65;;;3.25;;
23388;SDS011;11867;51.198;11.966;2023-04-12T03:22:49;4.40;;;2.92;;
23388;SDS011;11867;51.198;11.966;2023-04-12T03:23:51;3.33;;;3.03;;
23388;SDS011;11867;51.198;11.966;2023-04-12T03:24:53;4.38;;;2.95;;
23388;SDS011;11867;51.198;11.966;2023-04-12T03:25:55;4.57;;;3.00;;
23388;SDS011;11867;51.198;11.966;2023-04-12T03:26:57;4.18;;;3.10;;
23388;SDS011;11867;51.198;11.966;2023-04-12T03:27:59;6.28;;;2.75;;
23388;SDS011;11867;51.198;11.966;2023-04-12T03:29:02;4.13;;;2.85;;
23388;SDS011;11867;51.198;11.966;2023-04-12T03:30:06;4.43;;;2.90;;
23388;SDS011;11867;51.198;11.966;2023-04-12T03:31:09;4.60;;;3.17;;
23388;SDS011;11867;51.198;11.966;2023-04-12T03:32:14;6.13;;;3.20;;
23388;SDS011;11867;51.198;11.966;2023-04-12T03:33:15;3.58;;;3.08;;
23388;SDS011;11867;51.198;11.966;2023-04-12T03:34:18;6.82;;;3.03;;
23388;SDS011;11867;51.198;11.966;2023-04-12T03:35:19;5.25;;;2.80;;
23388;SDS011;11867;51.198;11.966;2023-04-12T03:36:22;3.42;;;2.70;;
23388;SDS011;11867;51.198;11.966;2023-04-12T03:37:24;5.00;;;2.83;;
23388;SDS011;11867;51.198;11.966;2023-04-12T03:38:26;6.07;;;3.13;;
23388;SDS011;11867;51.198;11.966;2023-04-12T03:39:29;4.32;;;2.90;;
23388;SDS011;11867;51.198;11.966;2023-04-12T03:40:30;3.80;;;2.80;;
23388;SDS011;11867;51.198;11.966;2023-04-12T03:41:33;6.88;;;3.28;;
23388;SDS011;11867;51.198;11.966;2023-04-12T03:42:34;5.82;;;3.00;;
23388;SDS011;11867;51.198;11.966;2023-04-12T03:43:37;4.78;;;3.08;;
23388;SDS011;11867;51.198;11.966;2023-04-12T03:44:39;3.88;;;2.72;;
23388;SDS011;11867;51.198;11.966;2023-04-12T03:45:41;4.43;;;2.72;;
23388;SDS011;11867;51.198;11.966;2023-04-12T03:46:43;3.20;;;2.55;;
23388;SDS011;11867;51.198;11.966;2023-04-12T03:47:47;5.30;;;2.90;;
23388;SDS011;11867;51.198;11.966;2023-04-12T03:48:49;3.17;;;2.53;;
23388;SDS011;11867;51.198;11.966;2023-04-12T03:49:53;5.60;;;2.67;;
23388;SDS011;11867;51.198;11.966;2023-04-12T03:51:11;7.25;;;2.70;;
23388;SDS011;11867;51.198;11.966;2023-04-12T03:52:14;7.20;;;2.42;;
23388;SDS011;11867;51.198;11.966;2023-04-12T03:53:15;4.55;;;2.45;;
23388;SDS011;11867;51.198;11.966;2023-04-12T03:54:18;4.55;;;2.50;;
23388;SDS011;11867;51.198;11.966;2023-04-12T03:55:19;4.68;;;2.72;;
23388;SDS011;11867;51.198;11.966;2023-04-12T03:56:22;5.40;;;3.33;;
23388;SDS011;11867;51.198;11.966;2023-04-12T03:57:24;4.47;;;2.60;;
23388;SDS011;11867;51.198;11.966;2023-04-12T03:58:27;7.32;;;2.92;;
23388;SDS011;11867;51.198;11.966;2023-04-12T03:59:28;6.35;;;2.97;;
23388;SDS011;11867;51.198;11.966;2023-04-12T04:00:33;3.80;;;2.88;;
23388;SDS011;11867;51.198;11.966;2023-04-12T04:01:35;6.60;;;3.40;;
23388;SDS011;11867;51.198;11.966;2023-04-12T04:02:39;4.88;;;3.35;;
23388;SDS011;11867;51.198;11.966;2023-04-12T04:03:42;5.15;;;3.40;;
23388;SDS011;11867;51.198;11.966;2023-04-12T04:04:46;4.47;;;2.78;;
23388;SDS011;11867;51.198;11.966;2023-04-12T04:05:48;5.80;;;2.90;;
23388;SDS011;11867;51.198;11.966;2023-04-12T04:06:50;5.63;;;2.97;;
23388;SDS011;11867;51.198;11.966;2023-04-12T04:07:52;5.72;;;2.65;;
23388;SDS011;11867;51.198;11.966;2023-04-12T04:08:55;3.72;;;2.40;;
23388;SDS011;11867;51.198;11.966;2023-04-12T04:09:57;4.65;;;2.67;;
23388;SDS011;11867;51.198;11.966;2023-04-12T04:10:59;7.88;;;3.05;;
23388;SDS011;11867;51.198;11.966;2023-04-12T04:12:01;5.80;;;2.88;;
23388;SDS011;11867;51.198;11.966;2023-04-12T04:13:03;4.45;;;2.38;;
23388;SDS011;11867;51.198;11.966;2023-04-12T04:14:05;4.03;;;3.05;;
23388;SDS011;11867;51.198;11.966;2023-04-12T04:15:09;4.10;;;2.63;;
23388;SDS011;11867;51.198;11.966;2023-04-12T04:16:11;3.67;;;2.78;;
23388;SDS011;11867;51.198;11.966;2023-04-12T04:17:14;5.82;;;3.30;;
23388;SDS011;11867;51.198;11.966;2023-04-12T04:18:15;3.53;;;3.22;;
23388;SDS011;11867;51.198;11.966;2023-04-12T04:19:19;4.28;;;3.28;;
23388;SDS011;11867;51.198;11.966;2023-04-12T04:20:21;5.32;;;3.13;;
23388;SDS011;11867;51.198;11.966;2023-04-12T04:21:25;6.05;;;3.60;;
23388;SDS011;11867;51.198;11.966;2023-04-12T04:22:26;6.60;;;3.17;;
23388;SDS011;11867;51.198;11.966;2023-04-12T04:23:29;3.67;;;2.97;;
23388;SDS011;11867;51.198;11.966;2023-04-12T04:24:39;5.78;;;3.50;;
23388;SDS011;11867;51.198;11.966;2023-04-12T04:25:41;5.30;;;3.58;;
23388;SDS011;11867;51.198;11.966;2023-04-12T04:26:43;4.70;;;3.30;;
23388;SDS011;11867;51.198;11.966;2023-04-12T04:27:46;3.78;;;3.25;;
23388;SDS011;11867;51.198;11.966;2023-04-12T04:28:49;4.72;;;3.47;;
23388;SDS011;11867;51.198;11.966;2023-04-12T04:29:52;6.57;;;4.07;;
23388;SDS011;11867;51.198;11.966;2023-04-12T04:30:53;4.88;;;3.33;;
23388;SDS011;11867;51.198;11.966;2023-04-12T04:31:57;5.20;;;3.13;;
23388;SDS011;11867;51.198;11.966;2023-04-12T04:32:59;7.13;;;3.50;;
23388;SDS011;11867;51.198;11.966;2023-04-12T04:34:02;5.50;;;3.88;;
23388;SDS011;11867;51.198;11.966;2023-04-12T04:35:07;4.53;;;3.33;;
23388;SDS011;11867;51.198;11.966;2023-04-12T04:36:10;5.47;;;3.80;;
23388;SDS011;11867;51.198;11.966;2023-04-12T04:37:12;6.53;;;3.35;;
23388;SDS011;11867;51.198;11.966;2023-04-12T04:38:17;6.78;;;3.35;;
23388;SDS011;11867;51.198;11.966;2023-04-12T04:39:20;5.20;;;3.78;;
23388;SDS011;11867;51.198;11.966;2023-04-12T04:40:23;5.32;;;3.97;;
23388;SDS011;11867;51.198;11.966;2023-04-12T04:41:25;5.95;;;3.78;;
23388;SDS011;11867;51.198;11.966;2023-04-12T04:42:27;6.18;;;4.10;;
23388;SDS011;11867;51.198;11.966;2023-04-12T04:43:30;4.10;;;3.00;;
23388;SDS011;11867;51.198;11.966;2023-04-12T04:44:34;5.28;;;3.63;;
23388;SDS011;11867;51.198;11.966;2023-04-12T04:45:36;7.47;;;3.97;;
23388;SDS011;11867;51.198;11.966;2023-04-12T04:46:41;6.72;;;4.05;;
23388;SDS011;11867;51.198;11.966;2023-04-12T04:47:43;3.72;;;3.00;;
23388;SDS011;11867;51.198;11.966;2023-04-12T04:48:45;6.45;;;3.53;;
23388;SDS011;11867;51.198;11.966;2023-04-12T04:49:48;6.00;;;2.90;;
23388;SDS011;11867;51.198;11.966;2023-04-12T04:50:51;4.47;;;2.90;;
23388;SDS011;11867;51.198;11.966;2023-04-12T04:51:54;5.97;;;2.83;;
23388;SDS011;11867;51.198;11.966;2023-04-12T04:52:56;3.92;;;2.90;;
23388;SDS011;11867;51.198;11.966;2023-04-12T04:53:58;6.82;;;3.38;;
23388;SDS011;11867;51.198;11.966;2023-04-12T04:55:01;6.05;;;3.55;;
23388;SDS011;11867;51.198;11.966;2023-04-12T04:56:07;4.30;;;3.03;;
23388;SDS011;11867;51.198;11.966;2023-04-12T04:57:09;5.93;;;2.22;;
23388;SDS011;11867;51.198;11.966;2023-04-12T04:58:12;5.65;;;3.10;;
23388;SDS011;11867;51.198;11.966;2023-04-12T04:59:14;4.93;;;2.83;;
23388;SDS011;11867;51.198;11.966;2023-04-12T05:00:18;7.10;;;2.80;;
23388;SDS011;11867;51.198;11.966;2023-04-12T05:01:20;4.55;;;2.40;;
23388;SDS011;11867;51.198;11.966;2023-04-12T05:02:26;2.58;;;2.03;;
23388;SDS011;11867;51.198;11.966;2023-04-12T05:03:27;3.92;;;2.35;;
23388;SDS011;11867;51.198;11.966;2023-04-12T05:04:31;4.50;;;3.03;;
23388;SDS011;11867;51.198;11.966;2023-04-12T05:05:33;8.27;;;2.88;;
23388;SDS011;11867;51.198;11.966;2023-04-12T05:06:37;6.35;;;2.70;;
23388;SDS011;11867;51.198;11.966;2023-04-12T05:07:38;4.35;;;2.33;;
23388;SDS011;11867;51.198;11.966;2023-04-12T05:08:41;5.20;;;2.85;;
23388;SDS011;11867;51.198;11.966;2023-04-12T05:09:43;4.40;;;2.15;;
23388;SDS011;11867;51.198;11.966;2023-04-12T05:10:48;2.97;;;2.35;;
23388;SDS011;11867;51.198;11.966;2023-04-12T05:11:51;4.38;;;2.30;;
23388;SDS011;11867;51.198;11.966;2023-04-12T05:12:53;4.85;;;2.30;;
23388;SDS011;11867;51.198;11.966;2023-04-12T05:13:55;5.28;;;2.58;;
23388;SDS011;11867;51.198;11.966;2023-04-12T05:14:57;4.18;;;2.30;;
23388;SDS011;11867;51.198;11.966;2023-04-12T05:16:12;4.30;;;1.88;;
23388;SDS011;11867;51.198;11.966;2023-04-12T05:17:14;5.72;;;2.22;;
23388;SDS011;11867;51.198;11.966;2023-04-12T05:18:16;5.70;;;1.98;;
23388;SDS011;11867;51.198;11.966;2023-04-12T05:19:19;4.53;;;2.40;;
23388;SDS011;11867;51.198;11.966;2023-04-12T05:20:21;3.17;;;2.20;;
23388;SDS011;11867;51.198;11.966;2023-04-12T05:21:23;4.65;;;2.13;;
23388;SDS011;11867;51.198;11.966;2023-04-12T05:22:27;4.85;;;2.55;;
23388;SDS011;11867;51.198;11.966;2023-04-12T05:23:31;4.75;;;2.20;;
23388;SDS011;11867;51.198;11.966;2023-04-12T05:24:36;4.55;;;2.60;;
23388;SDS011;11867;51.198;11.966;2023-04-12T05:25:42;3.65;;;1.65;;
23388;SDS011;11867;51.198;11.966;2023-04-12T05:26:47;4.35;;;2.10;;
23388;SDS011;11867;51.198;11.966;2023-04-12T05:27:49;5.22;;;1.85;;
23388;SDS011;11867;51.198;11.966;2023-04-12T05:28:52;3.67;;;1.90;;
23388;SDS011;11867;51.198;11.966;2023-04-12T05:29:55;9.13;;;1.90;;
23388;SDS011;11867;51.198;11.966;2023-04-12T05:30:57;4.18;;;1.90;;
23388;SDS011;11867;51.198;11.966;2023-04-12T05:31:59;2.88;;;2.00;;
23388;SDS011;11867;51.198;11.966;2023-04-12T05:33:01;3.67;;;1.65;;
23388;SDS011;11867;51.198;11.966;2023-04-12T05:34:04;6.53;;;2.30;;
23388;SDS011;11867;51.198;11.966;2023-04-12T05:35:05;4.57;;;2.03;;
23388;SDS011;11867;51.198;11.966;2023-04-12T05:36:08;2.45;;;2.05;;
23388;SDS011;11867;51.198;11.966;2023-04-12T05:37:10;4.53;;;2.00;;
23388;SDS011;11867;51.198;11.966;2023-04-12T05:38:14;3.60;;;2.08;;
23388;SDS011;11867;51.198;11.966;2023-04-12T05:39:16;4.45;;;1.90;;
23388;SDS011;11867;51.198;11.966;2023-04-12T05:40:21;4.53;;;1.85;;
23388;SDS011;11867;51.198;11.966;2023-04-12T05:41:22;3.20;;;1.95;;
23388;SDS011;11867;51.198;11.966;2023-04-12T05:42:24;4.45;;;1.67;;
23388;SDS011;11867;51.198;11.966;2023-04-12T05:43:27;3.28;;;1.83;;
23388;SDS011;11867;51.198;11.966;2023-04-12T05:44:29;5.18;;;2.10;;
23388;SDS011;11867;51.198;11.966;2023-04-12T05:45:31;5.03;;;1.90;;
23388;SDS011;11867;51.198;11.966;2023-04-12T05:46:33;4.70;;;2.03;;
23388;SDS011;11867;51.198;11.966;2023-04-12T05:47:35;4.72;;;2.47;;
23388;SDS011;11867;51.198;11.966;2023-04-12T05:48:37;6.60;;;2.22;;
23388;SDS011;11867;51.198;11.966;2023-04-12T05:49:40;4.57;;;2.20;;
23388;SDS011;11867;51.198;11.966;2023-04-12T05:50:45;11.95;;;2.80;;
23388;SDS011;11867;51.198;11.966;2023-04-12T05:51:51;4.65;;;1.70;;
23388;SDS011;11867;51.198;11.966;2023-04-12T05:52:53;2.83;;;1.92;;
23388;SDS011;11867;51.198;11.966;2023-04-12T05:53:57;5.00;;;2.00;;
23388;SDS011;11867;51.198;11.966;2023-04-12T05:54:59;3.75;;;1.75;;
23388;SDS011;11867;51.198;11.966;2023-04-12T05:56:01;4.65;;;2.22;;
23388;SDS011;11867;51.198;11.966;2023-04-12T05:57:03;4.35;;;1.98;;
23388;SDS011;11867;51.198;11.966;2023-04-12T05:58:06;1.95;;;1.42;;
23388;SDS011;11867;51.198;11.966;2023-04-12T05:59:09;4.43;;;1.70;;
23388;SDS011;11867;51.198;11.966;2023-04-12T06:00:12;4.53;;;1.83;;
23388;SDS011;11867;51.198;11.966;2023-04-12T06:01:17;2.53;;;2.10;;
23388;SDS011;11867;51.198;11.966;2023-04-12T06:02:21;3.80;;;1.80;;
23388;SDS011;11867;51.198;11.966;2023-04-12T06:03:26;2.75;;;1.38;;
23388;SDS011;11867;51.198;11.966;2023-04-12T06:04:30;5.35;;;2.13;;
23388;SDS011;11867;51.198;11.966;2023-04-12T06:05:50;4.60;;;1.85;;
23388;SDS011;11867;51.198;11.966;2023-04-12T06:06:53;3.47;;;1.52;;
23388;SDS011;11867;51.198;11.966;2023-04-12T06:07:56;4.95;;;1.85;;
23388;SDS011;11867;51.198;11.966;2023-04-12T06:09:01;5.43;;;1.80;;
23388;SDS011;11867;51.198;11.966;2023-04-12T06:10:05;3.60;;;1.50;;
23388;SDS011;11867;51.198;11.966;2023-04-12T06:11:10;4.50;;;1.75;;
23388;SDS011;11867;51.198;11.966;2023-04-12T06:12:18;3.17;;;1.60;;
23388;SDS011;11867;51.198;11.966;2023-04-12T06:13:21;3.25;;;1.45;;
23388;SDS011;11867;51.198;11.966;2023-04-12T06:14:23;4.72;;;1.73;;
23388;SDS011;11867;51.198;11.966;2023-04-12T06:15:25;5.25;;;1.92;;
23388;SDS011;11867;51.198;11.966;2023-04-12T06:16:28;4.45;;;1.70;;
23388;SDS011;11867;51.198;11.966;2023-04-12T06:17:31;8.13;;;1.70;;